Home > Products > Valid Products > TAF

000
FTUS44 KFWD 230500
TAFACT
TAF
KACT 230520Z 2306/2406 10003KT P6SM SKC=



000
FTUS44 KFWD 230500
TAFDFW
TAF
KDFW 230520Z 2306/2412 10005KT P6SM SKC=



000
FTUS44 KFWD 230500
TAFFTW
TAF
KFTW 230520Z 2306/2406 10004KT P6SM SKC=



000
FTUS44 KFWD 230300 AAA
TAFFTW
TAF AMD
KFTW 230310Z 2303/2324 09004KT P6SM SKC=



000
FTUS44 KFWD 230300 AAA
TAFACT
TAF AMD
KACT 230310Z 2303/2324 09004KT P6SM SKC=



000
FTUS44 KFWD 230300 AAA
TAFDFW
TAF AMD
KDFW 230310Z 2303/2406 09004KT P6SM SKC=



000
FTUS44 KFWD 222300
TAFACT
TAF
KACT 222336Z 2300/2324 09005KT P6SM FEW050=



000
FTUS44 KFWD 222300
TAFFTW
TAF
KFTW 222336Z 2300/2324 09004KT P6SM FEW060=



000
FTUS44 KFWD 222300
TAFDFW
TAF
KDFW 222336Z 2300/2406 09004KT P6SM FEW060=



000
FTUS44 KFWD 222000 AAA
TAFFTW
TAF AMD
KFTW 222050Z 2221/2318 09004KT P6SM FEW050
     FM230700 14005KT P6SM SCT250=



000
FTUS44 KFWD 222000 AAA
TAFDFW
TAF AMD
KDFW 222050Z 2221/2324 09004KT P6SM FEW050
     FM230700 14005KT P6SM SCT250=



000
FTUS44 KFWD 222000 AAA
TAFACT
TAF AMD
KACT 222050Z 2221/2318 11005KT P6SM FEW050=



000
FTUS44 KFWD 221700
TAFACT
TAF
KACT 221720Z 2218/2318 11005KT P6SM FEW050=



000
FTUS44 KFWD 221700
TAFDFW
TAF
KDFW 221720Z 2218/2324 09004KT P6SM FEW050
     FM230700 14005KT P6SM SCT250=



000
FTUS44 KFWD 221700
TAFFTW
TAF
KFTW 221720Z 2218/2318 09004KT P6SM FEW050
     FM230700 14005KT P6SM SCT250=



000
FTUS44 KFWD 221500 AAA
TAFACT
TAF AMD
KACT 221501Z 2215/2312 12005KT P6SM SCT250=



000
FTUS44 KFWD 221500 AAA
TAFDFW
TAF AMD
KDFW 221501Z 2215/2318 13008KT P6SM BKN250=



000
FTUS44 KFWD 221500 AAA
TAFFTW
TAF AMD
KFTW 221501Z 2215/2312 13007KT P6SM BKN250=



000
FTUS44 KFWD 221100
TAFFTW
TAF
KFTW 221120Z 2212/2312 13007KT P6SM BKN250
      TEMPO 2212/2214 5SM BR=



000
FTUS44 KFWD 221100
TAFDFW
TAF
KDFW 221120Z 2212/2318 13008KT P6SM BKN250
      TEMPO 2212/2214 5SM BR=



000
FTUS44 KFWD 221100
TAFACT
TAF
KACT 221120Z 2212/2312 12005KT P6SM SCT250=



000
FTUS44 KFWD 220800 AAA
TAFFTW
TAF AMD
KFTW 220855Z 2209/2306 13007KT P6SM BKN250=



000
FTUS44 KFWD 220800 AAA
TAFDFW
TAF AMD
KDFW 220855Z 2209/2312 13008KT P6SM BKN250=



000
FTUS44 KFWD 220800 AAA
TAFACT
TAF AMD
KACT 220855Z 2209/2306 12005KT P6SM SCT250=



000
FTUS44 KFWD 220500
TAFDFW
TAF
KDFW 220520Z 2206/2312 13007KT P6SM BKN250=



000
FTUS44 KFWD 220500
TAFFTW
TAF
KFTW 220520Z 2206/2306 13007KT P6SM BKN250=



000
FTUS44 KFWD 220500
TAFACT
TAF
KACT 220520Z 2206/2306 12005KT P6SM SCT250=



000
FTUS44 KFWD 220300 AAA
TAFACT
TAF AMD
KACT 220312Z 2203/2224 12005KT P6SM SKC=



000
FTUS44 KFWD 220300 AAA
TAFDFW
TAF AMD
KDFW 220312Z 2203/2306 13006KT P6SM SKC=



000
FTUS44 KFWD 220300 AAA
TAFFTW
TAF AMD
KFTW 220312Z 2203/2224 13006KT P6SM SKC=



000
FTUS44 KFWD 212300
TAFFTW
TAF
KFTW 212320Z 2200/2224 14006KT P6SM FEW060=



000
FTUS44 KFWD 212300
TAFACT
TAF
KACT 212320Z 2200/2224 13005KT P6SM FEW060=



000
FTUS44 KFWD 212300
TAFDFW
TAF
KDFW 212320Z 2200/2306 14006KT P6SM FEW060=



000
FTUS44 KFWD 212000 AAA
TAFACT
TAF AMD
KACT 212047Z 2121/2218 13007KT P6SM SCT050=



000
FTUS44 KFWD 212000 AAA
TAFDFW
TAF AMD
KDFW 212047Z 2121/2224 16007KT P6SM SCT050=



000
FTUS44 KFWD 212000 AAA
TAFFTW
TAF AMD
KFTW 212047Z 2121/2218 16007KT P6SM SCT050=



000
FTUS44 KFWD 211700
TAFACT
TAF
KACT 211731Z 2118/2218 13007KT P6SM SCT050=



000
FTUS44 KFWD 211700
TAFDFW
TAF
KDFW 211731Z 2118/2224 16007KT P6SM SCT050=



000
FTUS44 KFWD 211700
TAFFTW
TAF
KFTW 211731Z 2118/2218 16007KT P6SM SCT050=



000
FTUS44 KFWD 211400 AAA
TAFACT
TAF AMD
KACT 211453Z 2115/2212 15007KT P6SM FEW050=



000
FTUS44 KFWD 211400 AAB
TAFDFW
TAF AMD
KDFW 211453Z 2115/2218 15009KT 6SM BR BKN010
     FM211600 16007KT P6SM FEW050=



000
FTUS44 KFWD 211400 AAB
TAFFTW
TAF AMD
KFTW 211453Z 2115/2212 15009KT 5SM BR BKN010
     FM211600 16008KT P6SM FEW050=



000
FTUS44 KFWD 211200 AAA
TAFFTW
TAF AMD
KFTW 211225Z 2112/2212 15009KT 5SM BR BKN012
     FM211530 16008KT P6SM FEW050=



000
FTUS44 KFWD 211200 AAA
TAFDFW
TAF AMD
KDFW 211224Z 2112/2218 15009KT 6SM BR BKN012
     FM211530 16007KT P6SM FEW050=



000
FTUS44 KFWD 211100
TAFFTW
TAF
KFTW 211120Z 2112/2212 15009KT P6SM BKN014
     FM211400 16008KT P6SM FEW050=



000
FTUS44 KFWD 211100
TAFDFW
TAF
KDFW 211120Z 2112/2218 15009KT P6SM BKN012
     FM211400 16007KT P6SM FEW050=



000
FTUS44 KFWD 211100
TAFACT
TAF
KACT 211120Z 2112/2212 16007KT P6SM FEW010
      TEMPO 2112/2114 5SM BR BKN010
     FM211400 15007KT P6SM FEW050=



000
FTUS44 KFWD 211000 AAB
TAFFTW
TAF AMD
KFTW 211053Z 2111/2206 15009KT P6SM BKN014
     FM211400 16008KT P6SM FEW250=



000
FTUS44 KFWD 210900 AAB
TAFDFW
TAF AMD
KDFW 210955Z 2110/2212 15009KT P6SM FEW250
      TEMPO 2110/2112 BKN027=



000
FTUS44 KFWD 210900 AAA
TAFDFW
TAF AMD
KDFW 210900Z 2109/2212 15009KT P6SM FEW250=



000
FTUS44 KFWD 210900 AAA
TAFACT
TAF AMD
KACT 210900Z 2109/2206 15007KT P6SM SCT025=



000
FTUS44 KFWD 210900 AAA
TAFFTW
TAF AMD
KFTW 210900Z 2109/2206 15009KT P6SM FEW250=



000
FTUS44 KFWD 210500
TAFACT
TAF
KACT 210520Z 2106/2206 13005KT P6SM SCT035
     FM211000 16005KT P6SM BKN020
      TEMPO 2111/2114 5SM BR BKN012
     FM211600 17008KT P6SM SCT025=



000
FTUS44 KFWD 210500
TAFDFW
TAF
KDFW 210520Z 2106/2212 14009KT P6SM FEW250
     FM211200 16008KT P6SM SCT020=



000
FTUS44 KFWD 210500
TAFFTW
TAF
KFTW 210520Z 2106/2206 14009KT P6SM FEW250
     FM211200 16008KT P6SM SCT020=



000
FTUS44 KFWD 210200 AAA
TAFDFW
TAF AMD
KDFW 210258Z 2103/2206 13009KT P6SM SCT250
     FM211200 16008KT P6SM SCT020=



000
FTUS44 KFWD 210200 AAA
TAFACT
TAF AMD
KACT 210258Z 2103/2124 13006KT P6SM SKC
     FM211100 16005KT P6SM BKN020
      TEMPO 2112/2114 4SM BR BKN012
     FM211600 17008KT P6SM SCT025=



000
FTUS44 KFWD 210200 AAA
TAFFTW
TAF AMD
KFTW 210258Z 2103/2124 13009KT P6SM SCT250
     FM211200 16008KT P6SM SCT020=



000
FTUS44 KFWD 202300
TAFACT
TAF
KACT 202338Z 2100/2124 17005KT P6SM SCT035
     FM211200 18005KT P6SM BKN020
     FM211600 17008KT P6SM SCT025=



000
FTUS44 KFWD 202300
TAFFTW
TAF
KFTW 202338Z 2100/2124 15007KT P6SM SCT040=



000
FTUS44 KFWD 202300
TAFDFW
TAF
KDFW 202338Z 2100/2206 15008KT P6SM SCT040=



000
FTUS44 KFWD 202000 AAB
TAFFTW
TAF AMD
KFTW 202048Z 2021/2118 17007KT P6SM SCT035=



000
FTUS44 KFWD 202000 AAB
TAFDFW
TAF AMD
KDFW 202048Z 2021/2124 17008KT P6SM SCT035=



000
FTUS44 KFWD 202000 AAC
TAFACT
TAF AMD
KACT 202048Z 2021/2118 17005KT P6SM SCT030
     FM211200 18005KT P6SM BKN020
     FM211600 17008KT P6SM SCT025=



000
FTUS44 KFWD 201900 AAA
TAFDFW
TAF AMD
KDFW 201910Z 2019/2124 18008KT P6SM SCT035
      TEMPO 2020/2021 BKN035
     FM202100 16008KT P6SM SCT030 BKN250=



000
FTUS44 KFWD 201900 AAB
TAFACT
TAF AMD
KACT 201910Z 2019/2118 17005KT P6SM SCT030
     FM211200 18005KT P6SM BKN020
     FM211600 17008KT P6SM SCT025=



000
FTUS44 KFWD 201900 AAA
TAFFTW
TAF AMD
KFTW 201910Z 2019/2118 16007KT P6SM SCT035
      TEMPO 2019/2020 BKN035
     FM202100 16008KT P6SM SCT030 BKN250=



000
FTUS44 KFWD 201800 AAA
TAFACT
TAF AMD
KACT 201817Z 2018/2118 17005KT P6SM SCT016
      TEMPO 2018/2020 BKN016
     FM211200 18005KT P6SM BKN020
     FM211600 17008KT P6SM SCT025=



000
FTUS44 KFWD 201700 CCA
TAFDFW
TAF COR
KDFW 201736Z 2018/2124 18008KT P6SM SCT030
      TEMPO 2018/2020 BKN030
     FM202100 16008KT P6SM SCT030 BKN250=



000
FTUS44 KFWD 201700
TAFDFW
TAF
KDFW 201720Z 2018/2124 18008KT P6SM BKN027
     FM202100 16008KT P6SM SCT030 BKN250=



000
FTUS44 KFWD 201700
TAFFTW
TAF
KFTW 201720Z 2018/2118 16007KT P6SM SCT025
      TEMPO 2018/2021 BKN025
     FM202100 16008KT P6SM SCT030 BKN250=



000
FTUS44 KFWD 201700
TAFACT
TAF
KACT 201720Z 2018/2118 16005KT P6SM OVC012
     FM202100 16007KT P6SM SCT025 BKN250
     FM211200 18005KT P6SM BKN020
     FM211600 17008KT P6SM SCT025=



000
FTUS44 KFWD 201700 AAD
TAFACT
TAF AMD
KACT 201707Z 2017/2112 16005KT P6SM OVC012
     FM201900 15006KT P6SM BKN022
     FM202100 16007KT P6SM SCT025=



000
FTUS44 KFWD 201600 AAC
TAFDFW
TAF AMD
KDFW 201620Z 2016/2118 18010KT P6SM SCT050 BKN250
     FM201700 15007KT P6SM BKN030
     FM201900 16008KT P6SM SCT030 BKN250=



000
FTUS44 KFWD 201600 AAB
TAFFTW
TAF AMD
KFTW 201620Z 2016/2112 16007KT P6SM BKN250
     FM201700 16007KT P6SM BKN030
     FM201900 16008KT P6SM SCT030 BKN250=



000
FTUS44 KFWD 201500 AAB
TAFDFW
TAF AMD
KDFW 201502Z 2015/2118 15007KT P6SM BKN250
     FM201600 15007KT P6SM BKN020
     FM201800 16008KT P6SM SCT030 BKN250=



000
FTUS44 KFWD 201500 AAC
TAFACT
TAF AMD
KACT 201502Z 2015/2112 16005KT P6SM OVC012
     FM201700 16007KT P6SM SCT020=



000
FTUS44 KFWD 201500 AAA
TAFFTW
TAF AMD
KFTW 201502Z 2015/2112 17006KT P6SM BKN250
     FM201600 16007KT P6SM BKN020
     FM201800 16008KT P6SM SCT030 BKN250=



000
FTUS44 KFWD 201400 AAB
TAFACT
TAF AMD
KACT 201427Z 2014/2112 16005KT 5SM BR BKN012 OVC024
     FM201500 16006KT P6SM BKN025
     FM201700 16007KT P6SM SCT030=



000
FTUS44 KFWD 201400 CCA
TAFACT
TAF COR
KACT 201401Z 2014/2112 15005KT 5SM BR FEW015 OVC024
     FM201500 16007KT P6SM SCT030=



000
FTUS44 KFWD 201300 AAA
TAFACT
TAF AMD
KACT 201358Z 2014/2112 15005KT 5SM BR FEW015 OVC024
     FM201400 16007KT P6SM SCT030=



000
FTUS44 KFWD 201300 AAA
TAFDFW
TAF AMD
KDFW 201336Z 2014/2118 15007KT P6SM SCT030 BKN250=



000
FTUS44 KFWD 201100
TAFFTW
TAF
KFTW 201120Z 2012/2112 14005KT P6SM SCT030=



000
FTUS44 KFWD 201100
TAFACT
TAF
KACT 201120Z 2012/2112 14005KT 5SM BR SCT250
     FM201400 16007KT P6SM SCT030=



000
FTUS44 KFWD 201100
TAFDFW
TAF
KDFW 201120Z 2012/2118 14005KT 5SM BR BKN250
     FM201400 15007KT P6SM SCT030 BKN250=



000
FTUS44 KFWD 201100 AAB
TAFDFW
TAF AMD
KDFW 201101Z 2011/2112 14005KT 5SM BR BKN250
     FM201400 15007KT P6SM SCT030 BKN250=



000
FTUS44 KFWD 200900 AAA
TAFACT
TAF AMD
KACT 200900Z 2009/2106 14005KT P6SM SCT250=



000
FTUS44 KFWD 200900 AAA
TAFDFW
TAF AMD
KDFW 200900Z 2009/2112 14005KT P6SM SCT030=



000
FTUS44 KFWD 200900 AAA
TAFFTW
TAF AMD
KFTW 200900Z 2009/2106 14005KT P6SM SCT030=



    US Dept of Commerce
    National Oceanic and Atmospheric Administration
    National Weather Service
    1325 East West Highway
    Silver Spring, MD 20910
    Page Author: NWS Internet Services Team
Disclaimer
Information Quality
Credits
Glossary
Privacy Policy
Freedom of Information Act (FOIA)
About Us
Career Opportunities